Time;durP1;ratioP1;P1;durP2;ratioP2;P2;SDS_P1;SDS_P2;PMS_P1;PMS_P2;Temp;Humidity;BMP_temperature;BMP_pressure;BME280_temperature;BME280_humidity;BME280_pressure;Samples;Min_cycle;Max_cycle;Signal;HPM_P1;HPM_P2
2022/01/04 00:01:11;;;;;;;6.90;3.80;;;21.20;69.80;;;;;;4936292;28;95799;-65
2022/01/04 00:03:41;;;;;;;6.85;3.28;;;21.20;70.00;;;;;;4946698;28;95833;-65
2022/01/04 00:06:12;;;;;;;5.57;3.08;;;21.20;69.90;;;;;;4945130;28;96219;-63
2022/01/04 00:08:43;;;;;;;;;;;21.30;67.70;;;;;;4945445;28;96515;-63
2022/01/04 00:11:18;;;;;;;8.27;4.13;;;21.30;69.80;;;;;;4944402;28;95842;-64
2022/01/04 00:13:53;;;;;;;7.07;3.30;;;21.40;69.80;;;;;;4944045;28;95973;-62
2022/01/04 00:16:25;;;;;;;10.88;4.20;;;21.40;69.70;;;;;;4936121;28;95789;-62
2022/01/04 00:18:57;;;;;;;7.93;3.47;;;21.40;69.60;;;;;;4943424;28;95909;-64
2022/01/04 00:21:29;;;;;;;9.70;4.10;;;21.50;69.70;;;;;;4942135;28;95974;-64
2022/01/04 00:24:02;;;;;;;4.88;3.42;;;21.50;69.60;;;;;;4958735;28;96099;-64
2022/01/04 00:26:35;;;;;;;8.70;3.97;;;21.60;69.60;;;;;;4941974;28;96100;-64
2022/01/04 00:29:06;;;;;;;7.32;3.75;;;21.60;69.50;;;;;;4940896;28;96562;-66
2022/01/04 00:31:36;;;;;;;7.43;3.88;;;21.70;69.50;;;;;;4937381;28;96391;-65
2022/01/04 00:34:06;;;;;;;11.82;3.92;;;21.70;69.30;;;;;;4944274;28;96067;-58
2022/01/04 00:36:37;;;;;;;6.63;3.53;;;21.80;67.10;;;;;;4944409;28;95331;-64
2022/01/04 00:39:09;;;;;;;7.40;3.70;;;21.80;69.20;;;;;;4944571;28;96497;-63
2022/01/04 00:41:39;;;;;;;6.05;3.72;;;21.80;69.20;;;;;;4944889;28;95588;-65
2022/01/04 00:44:09;;;;;;;7.78;4.00;;;21.90;69.30;;;;;;4943857;28;95775;-65
2022/01/04 00:46:42;;;;;;;7.20;3.95;;;21.90;69.20;;;;;;4924715;28;96955;-66
2022/01/04 00:49:17;;;;;;;5.10;3.80;;;22.00;69.20;;;;;;4926382;28;96899;-59
2022/01/04 00:51:51;;;;;;;4.82;3.50;;;22.00;68.80;;;;;;4925591;28;96699;-66
2022/01/04 00:54:22;;;;;;;9.85;4.07;;;22.00;69.00;;;;;;4926975;28;95284;-65
2022/01/04 00:56:53;;;;;;;6.07;3.83;;;22.10;69.00;;;;;;4917075;28;96014;-64
2022/01/04 00:59:24;;;;;;;7.05;3.63;;;22.10;68.90;;;;;;4916478;28;96060;-68
2022/01/04 01:01:54;;;;;;;6.20;3.67;;;22.10;69.60;;;;;;4930752;28;96436;-66
2022/01/04 01:04:25;;;;;;;6.78;3.47;;;22.10;69.00;;;;;;4945299;28;97678;-64
2022/01/04 01:06:59;;;;;;;5.70;3.22;;;22.20;68.90;;;;;;4944978;28;95552;-61
2022/01/04 01:09:36;;;;;;;5.18;3.38;;;22.20;68.70;;;;;;4944668;28;96880;-65
2022/01/04 01:12:07;;;;;;;7.88;4.03;;;22.30;68.80;;;;;;4958772;28;96398;-60
2022/01/04 01:14:39;;;;;;;10.65;4.15;;;22.30;68.80;;;;;;4944063;28;95669;-65
2022/01/04 01:17:11;;;;;;;5.03;3.70;;;22.40;68.80;;;;;;4936358;28;96487;-64
2022/01/04 01:19:42;;;;;;;10.57;3.75;;;22.40;68.70;;;;;;4943015;28;96728;-59
2022/01/04 01:22:13;;;;;;;9.55;3.60;;;22.40;68.80;;;;;;4958533;28;96324;-64
2022/01/04 01:24:44;;;;;;;9.15;3.38;;;22.50;68.80;;;;;;4942251;28;96116;-60
2022/01/04 01:27:15;;;;;;;4.90;3.22;;;22.50;68.90;;;;;;4944122;28;95708;-63
2022/01/04 01:29:46;;;;;;;8.10;3.65;;;22.50;68.80;;;;;;4943086;28;96547;-63
2022/01/04 01:32:16;;;;;;;6.50;3.65;;;22.60;68.90;;;;;;4949747;28;98209;-59
2022/01/04 01:34:46;;;;;;;6.72;3.72;;;22.60;68.80;;;;;;4942020;28;96601;-58
2022/01/04 01:37:17;;;;;;;5.72;3.65;;;22.60;68.70;;;;;;4957792;28;95564;-63
2022/01/04 01:39:48;;;;;;;10.10;3.83;;;22.70;68.80;;;;;;4943325;28;96154;-64
2022/01/04 01:42:21;;;;;;;5.72;3.45;;;22.80;68.80;;;;;;4946319;28;96293;-61
2022/01/04 01:44:51;;;;;;;4.78;3.08;;;22.80;68.80;;;;;;4944956;28;95732;-59
2022/01/04 01:47:22;;;;;;;5.07;3.27;;;22.80;68.80;;;;;;4938706;28;95577;-55
2022/01/04 01:49:54;;;;;;;6.57;3.28;;;22.80;68.90;;;;;;4944657;28;96631;-62
2022/01/04 01:52:27;;;;;;;8.13;4.05;;;22.80;69.00;;;;;;4946197;28;96986;-61
2022/01/04 01:55:01;;;;;;;9.27;3.83;;;22.90;69.00;;;;;;4946228;28;95727;-61
2022/01/04 01:57:32;;;;;;;12.30;3.60;;;22.90;69.00;;;;;;4937827;28;98325;-59
2022/01/04 02:00:06;;;;;;;14.18;3.85;;;22.90;69.10;;;;;;4939356;28;96279;-62
2022/01/04 02:02:39;;;;;;;8.27;3.97;;;22.90;69.20;;;;;;4946357;28;95765;-64
2022/01/04 02:05:10;;;;;;;7.13;3.83;;;22.90;69.70;;;;;;4947456;28;95960;-62
2022/01/04 02:07:42;;;;;;;6.53;3.65;;;23.00;69.90;;;;;;4945302;28;95708;-57
2022/01/04 02:10:14;;;;;;;5.38;3.70;;;23.30;69.60;;;;;;4946015;28;96217;-62
2022/01/04 02:12:49;;;;;;;;;;;23.60;69.10;;;;;;4945995;28;96477;-62
2022/01/04 02:15:25;;;;;;;6.68;3.22;;;23.80;68.70;;;;;;4954700;28;95704;-62
2022/01/04 02:17:56;;;;;;;4.80;3.03;;;24.00;68.30;;;;;;4945736;28;96724;-63
2022/01/04 02:20:27;;;;;;;6.45;2.88;;;24.20;68.00;;;;;;4945639;28;96126;-57
2022/01/04 02:22:58;;;;;;;4.47;2.72;;;24.40;67.60;;;;;;4945406;28;95800;-57
2022/01/04 02:25:29;;;;;;;4.68;2.78;;;24.60;67.30;;;;;;4945579;28;96673;-57
2022/01/04 02:28:00;;;;;;;;;;;24.60;67.10;;;;;;4946617;28;95727;-64
2022/01/04 02:30:30;;;;;;;4.63;3.10;;;24.80;66.70;;;;;;4938991;28;97021;-57
2022/01/04 02:33:00;;;;;;;4.78;2.75;;;24.90;66.30;;;;;;4944847;28;96643;-62
2022/01/04 02:35:31;;;;;;;4.03;2.20;;;25.10;66.20;;;;;;4945013;28;96126;-63
2022/01/04 02:38:03;;;;;;;4.25;2.63;;;25.20;65.90;;;;;;4946304;28;96284;-63
2022/01/04 02:40:35;;;;;;;2.78;2.58;;;25.30;65.60;;;;;;4944261;28;96703;-57
2022/01/04 02:43:05;;;;;;;;;;;25.50;65.40;;;;;;4944977;28;95871;-65
2022/01/04 02:45:37;;;;;;;4.50;2.83;;;25.50;65.10;;;;;;4939778;28;96367;-63
2022/01/04 02:48:09;;;;;;;;;;;25.60;64.90;;;;;;4946737;28;96678;-62
2022/01/04 02:50:41;;;;;;;3.03;2.50;;;25.80;64.70;;;;;;4946980;28;95913;-61
2022/01/04 02:53:12;;;;;;;6.43;3.33;;;25.80;64.40;;;;;;4943097;28;95994;-63
2022/01/04 02:55:44;;;;;;;6.30;3.72;;;25.70;64.20;;;;;;4944676;28;95549;-54
2022/01/04 02:58:15;;;;;;;5.22;3.72;;;25.50;64.20;;;;;;4929265;28;98800;-55
2022/01/04 03:00:47;;;;;;;4.63;3.53;;;25.30;64.60;;;;;;4936763;28;96612;-61
2022/01/04 03:03:20;;;;;;;4.95;3.72;;;25.00;64.70;;;;;;4944953;28;95824;-60
2022/01/04 03:05:50;;;;;;;8.95;4.95;;;24.80;65.10;;;;;;4945250;28;96133;-61
2022/01/04 03:08:22;;;;;;;7.57;3.97;;;24.60;65.80;;;;;;4959258;28;95864;-59
2022/01/04 03:10:54;;;;;;;6.97;4.35;;;24.50;66.30;;;;;;4958935;28;97889;-58
2022/01/04 03:13:26;;;;;;;10.20;4.55;;;24.50;66.40;;;;;;4941449;28;97337;-63
2022/01/04 03:15:58;;;;;;;7.70;4.47;;;24.50;66.80;;;;;;4935804;28;96755;-61
2022/01/04 03:18:30;;;;;;;8.38;4.65;;;24.60;67.30;;;;;;4945641;28;95768;-59
2022/01/04 03:21:01;;;;;;;9.25;4.45;;;24.60;66.80;;;;;;4944911;28;96495;-61
2022/01/04 03:23:32;;;;;;;8.68;5.25;;;24.60;67.10;;;;;;4944437;28;98500;-57
2022/01/04 03:26:03;;;;;;;10.05;5.47;;;24.60;67.20;;;;;;4944871;28;95267;-60
2022/01/04 03:28:35;;;;;;;7.60;4.80;;;24.70;67.90;;;;;;4944906;28;95837;-61
2022/01/04 03:31:06;;;;;;;6.40;5.25;;;24.80;67.30;;;;;;4934650;28;97490;-62
2022/01/04 03:33:38;;;;;;;10.07;5.47;;;24.80;67.30;;;;;;4944133;28;95856;-61
2022/01/04 03:36:09;;;;;;;11.40;5.95;;;24.70;67.20;;;;;;4944768;28;98344;-60
2022/01/04 03:38:42;;;;;;;6.07;4.80;;;24.70;67.50;;;;;;4959597;28;95910;-59
2022/01/04 03:41:13;;;;;;;8.90;5.78;;;24.70;67.30;;;;;;4944567;28;96188;-59
2022/01/04 03:43:44;;;;;;;9.32;5.75;;;24.80;67.30;;;;;;4944415;28;96027;-62
2022/01/04 03:46:14;;;;;;;9.27;5.53;;;24.70;67.20;;;;;;4936833;28;95478;-62
2022/01/04 03:48:45;;;;;;;10.27;6.15;;;24.70;67.10;;;;;;4943872;28;95774;-64
2022/01/04 03:51:18;;;;;;;6.93;5.45;;;24.60;67.20;;;;;;4942918;28;96748;-63
2022/01/04 03:53:49;;;;;;;8.07;5.50;;;24.60;67.50;;;;;;4945067;28;95588;-57
2022/01/04 03:56:21;;;;;;;12.98;6.85;;;24.50;67.60;;;;;;4939840;28;96157;-64
2022/01/04 03:58:52;;;;;;;9.77;5.80;;;24.50;67.60;;;;;;4936475;28;95848;-63
2022/01/04 04:01:23;;;;;;;14.15;6.78;;;24.60;67.90;;;;;;4935722;28;96582;-65
2022/01/04 04:03:54;;;;;;;7.13;5.55;;;24.60;67.70;;;;;;4944582;28;95972;-64
2022/01/04 04:06:24;;;;;;;9.93;6.38;;;24.60;67.60;;;;;;4950964;28;95928;-64
2022/01/04 04:08:56;;;;;;;8.32;5.78;;;24.60;67.60;;;;;;4946474;28;95966;-64
2022/01/04 04:11:29;;;;;;;6.38;4.80;;;24.60;67.60;;;;;;4944177;28;97001;-63
2022/01/04 04:14:00;;;;;;;5.38;4.40;;;24.60;67.80;;;;;;4944262;28;95736;-60
2022/01/04 04:16:33;;;;;;;5.78;5.13;;;24.60;67.80;;;;;;4936470;28;97379;-57
2022/01/04 04:19:04;;;;;;;9.15;4.97;;;24.70;68.00;;;;;;4944177;28;95841;-63
2022/01/04 04:21:36;;;;;;;8.20;5.25;;;24.70;67.60;;;;;;4942316;28;96064;-61
2022/01/04 04:24:09;;;;;;;6.20;4.75;;;24.70;67.30;;;;;;4945242;28;96312;-56
2022/01/04 04:26:40;;;;;;;5.50;4.72;;;24.60;67.00;;;;;;4944101;28;96014;-63
2022/01/04 04:29:11;;;;;;;6.85;5.07;;;24.60;66.90;;;;;;4944301;28;95825;-63
2022/01/04 04:31:42;;;;;;;5.63;4.68;;;24.50;66.60;;;;;;4935971;28;95937;-64
2022/01/04 04:34:12;;;;;;;9.48;5.32;;;24.50;66.10;;;;;;4944150;28;96255;-63
2022/01/04 04:36:43;;;;;;;6.47;5.15;;;24.40;65.70;;;;;;4943306;28;95298;-61
2022/01/04 04:39:19;;;;;;;10.10;5.10;;;24.40;65.40;;;;;;4943504;28;96188;-62
2022/01/04 04:41:52;;;;;;;6.82;4.47;;;24.50;63.60;;;;;;4942188;28;99269;-61
2022/01/04 04:44:23;;;;;;;10.75;4.75;;;24.50;65.20;;;;;;4942615;28;96342;-55
2022/01/04 04:46:54;;;;;;;6.43;4.35;;;24.40;64.40;;;;;;4935393;28;97069;-60
2022/01/04 04:49:26;;;;;;;7.93;5.18;;;24.30;64.70;;;;;;4942426;28;95375;-58
2022/01/04 04:51:59;;;;;;;8.05;4.32;;;24.30;64.50;;;;;;4942903;28;96193;-58
2022/01/04 04:54:30;;;;;;;6.63;5.07;;;24.20;64.20;;;;;;4942196;28;96429;-60
2022/01/04 04:57:01;;;;;;;8.10;4.85;;;24.20;64.50;;;;;;4934869;28;96168;-59
2022/01/04 04:59:31;;;;;;;;;;;24.20;65.20;;;;;;4951543;28;95921;-60
2022/01/04 05:02:02;;;;;;;6.37;4.17;;;24.30;64.60;;;;;;4921950;28;96092;-62
2022/01/04 05:04:32;;;;;;;6.28;4.85;;;24.30;64.20;;;;;;4922617;28;95965;-60
2022/01/04 05:07:03;;;;;;;6.68;4.68;;;24.20;64.20;;;;;;4923005;28;96024;-59
2022/01/04 05:09:34;;;;;;;4.15;3.80;;;24.20;63.80;;;;;;4924250;28;96081;-60
2022/01/04 05:12:06;;;;;;;4.75;4.30;;;24.20;63.40;;;;;;4923599;28;96790;-60
2022/01/04 05:14:45;;;;;;;8.70;3.95;;;24.10;63.20;;;;;;4922395;28;96701;-59
2022/01/04 05:17:21;;;;;;;12.07;4.93;;;24.10;63.70;;;;;;4917029;28;95406;-60
2022/01/04 05:19:53;;;;;;;15.30;5.18;;;24.10;63.50;;;;;;4924399;28;95545;-59
2022/01/04 05:22:24;;;;;;;6.68;4.72;;;24.10;63.20;;;;;;4921856;28;96695;-56
2022/01/04 05:24:55;;;;;;;11.15;4.60;;;24.10;63.60;;;;;;4922131;28;95776;-58
2022/01/04 05:27:26;;;;;;;5.85;4.25;;;24.10;63.70;;;;;;4924122;28;96061;-60
2022/01/04 05:29:58;;;;;;;5.18;3.42;;;24.20;63.60;;;;;;4923738;28;95998;-62
2022/01/04 05:32:30;;;;;;;9.75;4.03;;;24.20;63.40;;;;;;4931833;28;98781;-58
2022/01/04 05:35:00;;;;;;;4.75;3.92;;;24.20;63.20;;;;;;4943054;28;95980;-63
2022/01/04 05:37:31;;;;;;;7.20;4.50;;;24.20;62.40;;;;;;4942644;28;95687;-63
2022/01/04 05:40:02;;;;;;;11.90;4.13;;;24.30;62.50;;;;;;4940714;28;96228;-63
2022/01/04 05:42:33;;;;;;;8.25;4.40;;;24.20;62.00;;;;;;4943440;28;97141;-63
2022/01/04 05:45:04;;;;;;;10.55;4.10;;;24.20;61.90;;;;;;4942396;28;95902;-63
2022/01/04 05:47:34;;;;;;;6.07;3.90;;;24.20;62.00;;;;;;4933731;28;98773;-63
2022/01/04 05:50:06;;;;;;;9.60;3.88;;;24.20;61.60;;;;;;4942799;28;95858;-62
2022/01/04 05:52:38;;;;;;;5.95;4.15;;;24.30;61.60;;;;;;4943146;28;96434;-60
2022/01/04 05:55:08;;;;;;;;;;;24.40;62.00;;;;;;4942235;28;95850;-57
2022/01/04 05:57:39;;;;;;;;;;;24.40;61.60;;;;;;4929456;28;95883;-61
2022/01/04 06:00:15;;;;;;;4.70;4.30;;;24.40;59.70;;;;;;4942134;28;95637;-62
2022/01/04 06:02:45;;;;;;;5.15;4.22;;;24.40;61.20;;;;;;4951607;28;98924;-62
2022/01/04 06:05:15;;;;;;;6.72;3.97;;;24.40;61.20;;;;;;4942538;28;95798;-62
2022/01/04 06:07:44;;;;;;;10.90;6.10;;;24.50;62.20;;;;;;4942874;28;96699;-56
2022/01/04 06:10:16;;;;;;;;;;;24.70;60.80;;;;;;4942985;28;96228;-58
2022/01/04 06:15:19;;;;;;;5.82;5.03;;;24.70;60.10;;;;;;4940085;28;95656;-60
2022/01/04 06:17:51;;;;;;;7.07;4.70;;;24.70;59.80;;;;;;4922961;28;95665;-60
2022/01/04 06:20:23;;;;;;;5.63;4.68;;;24.80;60.00;;;;;;4921731;28;95870;-59
2022/01/04 06:22:54;;;;;;;8.05;5.13;;;24.80;60.00;;;;;;4920119;28;96258;-58
2022/01/04 06:25:27;;;;;;;6.82;4.75;;;24.80;59.80;;;;;;4921310;28;96329;-56
2022/01/04 06:27:58;;;;;;;7.28;5.80;;;24.90;60.00;;;;;;4921287;28;96670;-58
2022/01/04 06:30:28;;;;;;;5.00;4.28;;;24.90;60.00;;;;;;4915041;28;96089;-55
2022/01/04 06:33:01;;;;;;;6.07;4.45;;;24.90;59.90;;;;;;4944226;28;96119;-57
2022/01/04 06:35:37;;;;;;;9.60;4.78;;;24.90;60.10;;;;;;4942726;28;96361;-60
2022/01/04 06:38:08;;;;;;;5.05;4.13;;;24.90;59.50;;;;;;4946266;28;95695;-56
2022/01/04 06:40:40;;;;;;;5.80;4.10;;;24.90;59.20;;;;;;4945884;28;96435;-59
2022/01/04 06:43:10;;;;;;;5.90;4.00;;;24.90;59.20;;;;;;4945710;28;96100;-56
2022/01/04 06:45:40;;;;;;;7.97;4.47;;;24.90;59.20;;;;;;4936072;28;95844;-59
2022/01/04 06:48:13;;;;;;;5.60;5.00;;;24.90;59.50;;;;;;4943265;28;95436;-55
2022/01/04 06:50:44;;;;;;;7.70;5.07;;;24.90;59.20;;;;;;4945109;28;96493;-59
2022/01/04 06:53:16;;;;;;;7.88;5.45;;;24.90;58.90;;;;;;4927184;28;96264;-62
2022/01/04 06:55:50;;;;;;;7.25;5.03;;;24.80;58.80;;;;;;4944189;28;96719;-63
2022/01/04 06:58:22;;;;;;;8.15;5.32;;;24.60;58.60;;;;;;4935304;28;101242;-62
2022/01/04 07:00:53;;;;;;;7.03;5.60;;;24.60;58.80;;;;;;4937666;28;95621;-62
2022/01/04 07:03:28;;;;;;;9.05;5.88;;;24.50;59.00;;;;;;4944313;28;97940;-58
2022/01/04 07:05:58;;;;;;;6.68;5.60;;;24.50;58.60;;;;;;4943242;28;96045;-61
2022/01/04 07:08:30;;;;;;;7.03;5.88;;;24.60;59.00;;;;;;4945415;28;96165;-56
2022/01/04 07:11:04;;;;;;;5.95;4.63;;;24.70;59.00;;;;;;4944910;28;98376;-61
2022/01/04 07:13:36;;;;;;;7.97;5.63;;;24.70;58.80;;;;;;4943115;28;96641;-59
2022/01/04 07:16:09;;;;;;;10.07;5.80;;;24.70;58.60;;;;;;4937486;28;96588;-57
2022/01/04 07:18:46;;;;;;;9.07;6.35;;;24.70;59.00;;;;;;4943904;28;95765;-58
2022/01/04 07:21:18;;;;;;;5.75;5.18;;;24.80;58.90;;;;;;4957655;28;97121;-59
2022/01/04 07:23:49;;;;;;;11.13;6.13;;;24.80;58.80;;;;;;4943487;28;96086;-61
2022/01/04 07:26:21;;;;;;;6.72;6.03;;;24.70;58.70;;;;;;4942675;28;96198;-55
2022/01/04 07:28:52;;;;;;;9.63;6.35;;;24.80;58.20;;;;;;4944074;28;95817;-57
2022/01/04 07:31:23;;;;;;;8.73;7.90;;;24.70;58.10;;;;;;4936134;28;97049;-62
2022/01/04 07:33:54;;;;;;;9.03;8.10;;;24.60;57.80;;;;;;4945322;28;97419;-63
2022/01/04 07:36:28;;;;;;;12.13;8.07;;;24.70;58.20;;;;;;4943026;28;95814;-61
2022/01/04 07:38:59;;;;;;;8.80;7.85;;;24.70;58.60;;;;;;4944957;28;95980;-63
2022/01/04 07:41:30;;;;;;;8.98;8.02;;;24.60;58.00;;;;;;4943129;28;95412;-55
2022/01/04 07:44:01;;;;;;;9.00;8.10;;;24.60;58.30;;;;;;4945314;28;96531;-62
2022/01/04 07:46:31;;;;;;;10.38;7.90;;;24.60;57.80;;;;;;4935655;28;95910;-62
2022/01/04 07:49:03;;;;;;;8.43;7.53;;;24.50;57.90;;;;;;4943975;28;96045;-60
2022/01/04 07:51:35;;;;;;;13.93;7.68;;;24.50;58.40;;;;;;4943712;28;95848;-62
2022/01/04 07:54:05;;;;;;;16.38;7.32;;;24.50;58.20;;;;;;4942920;28;96978;-58
2022/01/04 07:56:38;;;;;;;11.30;7.68;;;24.50;57.80;;;;;;4940690;28;98789;-62
2022/01/04 07:59:09;;;;;;;8.68;6.97;;;24.50;57.60;;;;;;4933194;28;95931;-63
2022/01/04 08:01:39;;;;;;;;;;;24.50;58.00;;;;;;4924509;28;96519;-56
2022/01/04 08:04:12;;;;;;;6.70;5.83;;;24.50;58.50;;;;;;4926003;28;96377;-62
2022/01/04 08:06:43;;;;;;;7.53;5.95;;;24.50;59.10;;;;;;4922136;28;96312;-56
2022/01/04 08:09:14;;;;;;;7.88;5.30;;;24.50;59.50;;;;;;4920680;28;95976;-62
2022/01/04 08:11:45;;;;;;;12.27;6.10;;;24.40;60.40;;;;;;4922941;28;95914;-61
2022/01/04 08:14:17;;;;;;;11.32;5.07;;;24.50;60.80;;;;;;4921831;28;96848;-63
2022/01/04 08:16:48;;;;;;;10.32;5.75;;;24.50;61.20;;;;;;4955945;28;95899;-64
2022/01/04 08:19:20;;;;;;;6.65;5.05;;;24.50;61.50;;;;;;4943073;28;97121;-55
2022/01/04 08:21:51;;;;;;;9.73;5.28;;;24.40;62.20;;;;;;4943747;28;96043;-61
2022/01/04 08:24:22;;;;;;;8.60;5.10;;;24.40;62.00;;;;;;4941623;28;97342;-62
2022/01/04 08:26:53;;;;;;;7.53;5.03;;;24.40;61.70;;;;;;4943135;28;96808;-62
2022/01/04 08:29:25;;;;;;;8.75;4.80;;;24.30;61.80;;;;;;4943780;28;96549;-61
2022/01/04 08:31:55;;;;;;;9.75;4.47;;;24.30;62.20;;;;;;4950794;28;98599;-57
2022/01/04 08:34:26;;;;;;;8.68;4.88;;;24.20;62.40;;;;;;4943751;28;97657;-61
2022/01/04 08:36:58;;;;;;;6.60;4.45;;;24.20;62.20;;;;;;4944464;28;96241;-61
2022/01/04 08:39:29;;;;;;;10.57;4.68;;;24.20;62.50;;;;;;4943305;28;95599;-57
2022/01/04 08:42:02;;;;;;;5.60;4.53;;;24.20;62.30;;;;;;4943756;28;96699;-56
2022/01/04 08:44:33;;;;;;;4.30;3.90;;;24.20;62.90;;;;;;4941872;28;96638;-59
2022/01/04 08:47:03;;;;;;;10.27;4.97;;;24.20;63.50;;;;;;4923989;28;96389;-58
2022/01/04 08:49:34;;;;;;;9.67;4.07;;;24.30;64.00;;;;;;4923139;28;95942;-57
2022/01/04 08:52:07;;;;;;;6.03;3.90;;;24.30;64.20;;;;;;4924145;28;95848;-57
2022/01/04 08:54:38;;;;;;;5.22;3.38;;;24.30;64.60;;;;;;4923830;28;96652;-62
2022/01/04 08:57:09;;;;;;;6.63;3.35;;;24.30;65.00;;;;;;4917519;28;95829;-62
2022/01/04 08:59:40;;;;;;;4.80;3.40;;;24.30;65.20;;;;;;4919204;28;96128;-65
2022/01/04 09:02:10;;;;;;;7.60;3.97;;;24.30;65.30;;;;;;4930346;28;95782;-55
2022/01/04 09:04:41;;;;;;;3.40;2.90;;;24.30;65.50;;;;;;4943180;28;96012;-58
2022/01/04 09:07:13;;;;;;;8.52;3.38;;;24.20;65.80;;;;;;4942161;28;96469;-56
2022/01/04 09:09:46;;;;;;;8.15;4.00;;;24.20;65.90;;;;;;4943803;28;96205;-62
2022/01/04 09:13:17;;;;;;;4.55;2.85;;;24.30;66.20;;;;;;4929245;28;96470;-64
2022/01/04 09:21:25;;;;;;;4.13;2.83;;;24.40;65.90;;;;;;4944786;28;95303;-63
2022/01/04 09:23:59;;;;;;;2.58;2.38;;;24.40;65.90;;;;;;4944444;28;95877;-63
2022/01/04 09:26:30;;;;;;;2.65;2.45;;;24.50;66.00;;;;;;4944181;28;96684;-63
2022/01/04 09:29:01;;;;;;;4.50;2.53;;;24.50;65.80;;;;;;4943723;28;96347;-63
2022/01/04 09:31:32;;;;;;;2.35;1.88;;;24.50;65.60;;;;;;4937001;28;96511;-65
2022/01/04 09:34:08;;;;;;;2.97;2.05;;;24.50;65.80;;;;;;4944998;28;96694;-64
2022/01/04 09:36:40;;;;;;;2.80;2.00;;;24.50;65.80;;;;;;4944193;28;96501;-59
2022/01/04 09:39:17;;;;;;;1.88;1.77;;;24.50;65.80;;;;;;4944457;28;96106;-55
2022/01/04 09:41:48;;;;;;;2.33;2.00;;;24.50;65.70;;;;;;4945396;28;95819;-57
2022/01/04 09:44:18;;;;;;;1.95;1.70;;;24.50;65.90;;;;;;4945709;28;95696;-53
2022/01/04 09:46:48;;;;;;;2.50;1.50;;;24.50;65.80;;;;;;4924664;28;97765;-60
2022/01/04 09:49:19;;;;;;;2.30;1.70;;;24.50;65.90;;;;;;4924015;28;95818;-65
2022/01/04 09:51:53;;;;;;;1.58;1.48;;;24.50;65.90;;;;;;4921842;28;96947;-65
2022/01/04 09:54:26;;;;;;;1.75;1.50;;;24.40;65.90;;;;;;4925062;28;95974;-57
2022/01/04 09:56:58;;;;;;;1.30;1.30;;;24.40;65.90;;;;;;4918536;28;96366;-55
2022/01/04 09:59:30;;;;;;;2.05;1.67;;;24.40;65.90;;;;;;4916374;28;95971;-57
2022/01/04 10:02:21;;;;;;;2.17;1.48;;;24.40;66.00;;;;;;4932211;28;95939;-59
2022/01/04 10:04:50;;;;;;;;;;;24.40;66.00;;;;;;4948845;28;96710;-59
2022/01/04 10:07:22;;;;;;;3.08;2.00;;;24.40;66.10;;;;;;4948829;28;95992;-57
2022/01/04 10:09:53;;;;;;;1.60;1.50;;;24.40;66.10;;;;;;4946468;28;95503;-57
2022/01/04 10:12:24;;;;;;;2.83;1.70;;;24.40;66.10;;;;;;4946772;28;95793;-65
2022/01/04 10:14:56;;;;;;;2.20;1.85;;;24.40;65.90;;;;;;4947866;28;95468;-55
2022/01/04 10:17:33;;;;;;;1.98;1.42;;;24.40;65.90;;;;;;4925523;28;96475;-59
2022/01/04 10:20:07;;;;;;;1.65;1.55;;;24.40;66.00;;;;;;4927323;28;95579;-58
2022/01/04 10:22:38;;;;;;;12.02;2.90;;;24.40;66.10;;;;;;4958679;28;96002;-58
2022/01/04 10:25:15;;;;;;;7.00;2.00;;;24.30;66.00;;;;;;4958746;28;96064;-57
2022/01/04 10:27:52;;;;;;;2.95;2.10;;;24.30;66.20;;;;;;4927203;28;96673;-60
2022/01/04 10:30:30;;;;;;;3.88;1.83;;;24.30;66.20;;;;;;4920644;28;98583;-60
2022/01/04 10:33:28;;;;;;;2.38;1.55;;;24.30;66.30;;;;;;4944352;28;95432;-66
2022/01/04 10:36:00;;;;;;;3.97;2.08;;;24.20;66.50;;;;;;4946246;28;95734;-60
2022/01/04 10:38:36;;;;;;;3.92;1.85;;;24.20;66.40;;;;;;4946439;28;96858;-67
2022/01/04 10:41:22;;;;;;;2.60;1.65;;;24.20;66.60;;;;;;4947226;28;95915;-59
2022/01/04 10:43:59;;;;;;;2.53;1.50;;;24.20;66.80;;;;;;4946165;28;95994;-65
2022/01/04 10:46:38;;;;;;;1.67;1.58;;;24.20;66.90;;;;;;4942858;28;96136;-65
2022/01/04 10:49:20;;;;;;;2.85;1.80;;;24.20;67.00;;;;;;4946417;28;98469;-66
2022/01/04 10:52:12;;;;;;;2.17;1.98;;;24.20;67.20;;;;;;4947401;28;97565;-66
2022/01/04 10:54:42;;;;;;;1.75;1.27;;;24.20;67.00;;;;;;4948947;28;96772;-67
2022/01/04 10:57:12;;;;;;;1.73;1.45;;;24.20;67.20;;;;;;4942481;28;101211;-66
2022/01/04 10:59:43;;;;;;;;;;;24.10;67.40;;;;;;4946844;28;96475;-66
2022/01/04 11:02:32;;;;;;;2.28;1.33;;;24.20;67.40;;;;;;4931355;28;96205;-65
2022/01/04 11:05:15;;;;;;;1.92;1.50;;;24.20;67.50;;;;;;4928470;28;95774;-66
2022/01/04 11:08:02;;;;;;;1.85;1.70;;;24.20;67.60;;;;;;4930785;28;95931;-60
2022/01/04 11:10:35;;;;;;;2.17;1.45;;;24.20;67.70;;;;;;4930161;28;96263;-58
2022/01/04 11:13:08;;;;;;;3.10;1.80;;;24.10;67.70;;;;;;4959324;28;97676;-60
2022/01/04 11:15:40;;;;;;;2.20;1.65;;;24.10;67.80;;;;;;4926268;28;95469;-66
2022/01/04 11:18:12;;;;;;;2.42;1.27;;;24.10;68.00;;;;;;4951417;28;95840;-67
2022/01/04 11:20:45;;;;;;;5.40;1.60;;;24.10;68.00;;;;;;4951080;28;96064;-60
2022/01/04 11:23:16;;;;;;;2.63;1.98;;;24.10;68.10;;;;;;4939648;28;96287;-64
2022/01/04 11:25:49;;;;;;;3.17;1.35;;;23.90;67.70;;;;;;4944367;28;96067;-66
2022/01/04 11:28:21;;;;;;;2.28;1.40;;;23.70;68.70;;;;;;4961391;28;95642;-66
2022/01/04 11:31:13;;;;;;;2.70;1.42;;;23.50;69.60;;;;;;4939942;28;96737;-60
2022/01/04 11:34:00;;;;;;;3.00;1.75;;;23.30;70.10;;;;;;4961882;28;96084;-66
2022/01/04 11:36:38;;;;;;;3.63;1.65;;;23.20;71.00;;;;;;4947225;28;95672;-66
2022/01/04 11:39:31;;;;;;;2.55;1.40;;;23.10;70.80;;;;;;4947959;28;95350;-60
2022/01/04 11:42:09;;;;;;;2.25;1.85;;;22.90;72.40;;;;;;4944487;28;96197;-66
2022/01/04 11:44:49;;;;;;;3.45;1.40;;;23.00;72.60;;;;;;4947486;28;96178;-66
2022/01/04 11:47:34;;;;;;;2.28;1.40;;;22.90;72.50;;;;;;4936939;28;95773;-57
2022/01/04 11:50:18;;;;;;;1.80;1.55;;;22.80;72.80;;;;;;4947862;28;95889;-67
2022/01/04 11:52:58;;;;;;;3.55;2.28;;;22.80;73.50;;;;;;4945759;28;98574;-59
2022/01/04 11:55:47;;;;;;;2.92;1.70;;;22.70;73.70;;;;;;4956262;28;96566;-66
2022/01/04 11:58:20;;;;;;;2.47;1.42;;;22.70;73.00;;;;;;4935256;28;95484;-63
2022/01/04 12:01:00;;;;;;;3.28;1.80;;;22.50;73.60;;;;;;4940108;28;95381;-59
2022/01/04 12:03:48;;;;;;;2.55;1.60;;;22.50;74.50;;;;;;4951177;28;96714;-60
2022/01/04 12:06:20;;;;;;;1.70;1.60;;;22.40;75.20;;;;;;4950768;28;95382;-66
2022/01/04 12:08:55;;;;;;;3.50;2.05;;;22.40;75.50;;;;;;4949758;28;96082;-66
2022/01/04 12:11:26;;;;;;;2.63;1.67;;;22.50;75.50;;;;;;4945779;28;96422;-65
2022/01/04 12:14:03;;;;;;;3.40;2.17;;;22.50;75.60;;;;;;4945710;28;96841;-58
2022/01/04 12:16:43;;;;;;;4.72;2.13;;;22.50;75.60;;;;;;4950481;28;96476;-61
2022/01/04 12:19:15;;;;;;;2.87;1.90;;;22.60;75.90;;;;;;4947624;28;96129;-64
2022/01/04 12:21:49;;;;;;;8.13;1.83;;;22.80;75.90;;;;;;4947903;28;95972;-60
2022/01/04 12:24:25;;;;;;;4.00;2.33;;;22.90;75.00;;;;;;4946397;28;96029;-64
2022/01/04 12:27:10;;;;;;;3.92;1.90;;;23.10;75.00;;;;;;4948394;28;95796;-57
2022/01/04 12:29:40;;;;;;;5.32;1.85;;;23.40;74.80;;;;;;4978027;28;95361;-64
2022/01/04 12:32:23;;;;;;;3.47;1.70;;;23.90;73.30;;;;;;4933504;28;95862;-58
2022/01/04 12:35:01;;;;;;;5.13;2.10;;;23.90;73.20;;;;;;4947734;28;96392;-64
2022/01/04 12:37:37;;;;;;;3.45;2.00;;;24.00;72.20;;;;;;4940662;28;97798;-64
2022/01/04 12:40:08;;;;;;;2.13;1.88;;;24.30;72.00;;;;;;4960105;28;95697;-64
2022/01/04 12:42:43;;;;;;;3.75;2.30;;;24.30;71.90;;;;;;4949324;28;95771;-65
2022/01/04 12:45:14;;;;;;;2.55;1.50;;;24.50;70.90;;;;;;4947306;28;96692;-65
2022/01/04 12:47:49;;;;;;;3.13;2.05;;;24.50;70.80;;;;;;4935161;28;98023;-64
2022/01/04 12:50:24;;;;;;;2.72;1.92;;;24.60;70.30;;;;;;4947143;28;96439;-59
2022/01/04 12:52:55;;;;;;;3.90;2.17;;;24.50;70.00;;;;;;4949408;28;95908;-65
2022/01/04 12:55:30;;;;;;;2.58;2.10;;;24.60;69.90;;;;;;4949369;28;95642;-64
2022/01/04 12:58:04;;;;;;;2.08;1.50;;;24.50;69.70;;;;;;4935163;28;95420;-65
2022/01/04 13:00:35;;;;;;;4.95;2.30;;;24.50;70.10;;;;;;4938839;28;95986;-66
2022/01/04 13:03:10;;;;;;;4.78;2.00;;;24.50;69.90;;;;;;4948111;28;95203;-63
2022/01/04 13:05:42;;;;;;;2.75;1.85;;;24.50;69.80;;;;;;4947445;28;96654;-64
2022/01/04 13:08:28;;;;;;;4.85;1.95;;;24.40;69.90;;;;;;4948532;28;95701;-60
2022/01/04 13:11:09;;;;;;;3.22;1.95;;;24.40;69.70;;;;;;4963643;28;95842;-60
2022/01/04 13:13:41;;;;;;;3.15;1.75;;;24.40;69.80;;;;;;4948617;28;95839;-59
2022/01/04 13:16:29;;;;;;;5.03;1.70;;;24.50;70.00;;;;;;4936616;28;96086;-65
2022/01/04 13:19:15;;;;;;;2.25;1.70;;;24.60;69.80;;;;;;4947357;28;95823;-63
2022/01/04 13:22:07;;;;;;;2.13;1.73;;;24.80;69.60;;;;;;4946956;28;95827;-64
2022/01/04 13:24:44;;;;;;;2.95;1.65;;;24.70;69.00;;;;;;4948790;28;95705;-65
2022/01/04 13:27:19;;;;;;;2.05;1.33;;;24.70;69.10;;;;;;4961204;28;98547;-64